sensor_id;sensor_type;location;lat;lon;timestamp;P1;durP1;ratioP1;P2;durP2;ratioP2
826;SDS011;395;48.132;11.608;2023-06-26T00:01:31;8.30;;;7.40;;
826;SDS011;395;48.132;11.608;2023-06-26T00:03:57;9.70;;;8.10;;
826;SDS011;395;48.132;11.608;2023-06-26T00:06:24;8.80;;;7.90;;
826;SDS011;395;48.132;11.608;2023-06-26T00:08:51;8.87;;;8.07;;
826;SDS011;395;48.132;11.608;2023-06-26T00:11:18;7.47;;;6.77;;
826;SDS011;395;48.132;11.608;2023-06-26T00:13:44;9.27;;;6.97;;
826;SDS011;395;48.132;11.608;2023-06-26T00:16:09;9.30;;;8.30;;
826;SDS011;395;48.132;11.608;2023-06-26T00:18:35;9.10;;;7.87;;
826;SDS011;395;48.132;11.608;2023-06-26T00:21:01;9.00;;;8.10;;
826;SDS011;395;48.132;11.608;2023-06-26T00:23:26;8.47;;;7.67;;
826;SDS011;395;48.132;11.608;2023-06-26T00:25:57;8.00;;;7.30;;
826;SDS011;395;48.132;11.608;2023-06-26T00:28:22;8.87;;;7.60;;
826;SDS011;395;48.132;11.608;2023-06-26T00:30:48;8.60;;;7.80;;
826;SDS011;395;48.132;11.608;2023-06-26T00:33:14;9.30;;;8.40;;
826;SDS011;395;48.132;11.608;2023-06-26T00:35:40;9.03;;;7.70;;
826;SDS011;395;48.132;11.608;2023-06-26T00:38:06;9.10;;;7.93;;
826;SDS011;395;48.132;11.608;2023-06-26T00:40:31;8.67;;;7.57;;
826;SDS011;395;48.132;11.608;2023-06-26T00:42:57;8.20;;;7.40;;
826;SDS011;395;48.132;11.608;2023-06-26T00:45:22;8.73;;;7.83;;
826;SDS011;395;48.132;11.608;2023-06-26T00:47:48;8.43;;;7.67;;
826;SDS011;395;48.132;11.608;2023-06-26T00:50:14;7.30;;;6.60;;
826;SDS011;395;48.132;11.608;2023-06-26T00:52:41;8.27;;;7.30;;
826;SDS011;395;48.132;11.608;2023-06-26T00:55:07;8.73;;;7.20;;
826;SDS011;395;48.132;11.608;2023-06-26T00:57:33;7.40;;;6.70;;
826;SDS011;395;48.132;11.608;2023-06-26T01:00:00;7.90;;;7.20;;
826;SDS011;395;48.132;11.608;2023-06-26T01:02:26;7.40;;;6.70;;
826;SDS011;395;48.132;11.608;2023-06-26T01:04:58;8.00;;;7.20;;
826;SDS011;395;48.132;11.608;2023-06-26T01:07:28;8.33;;;7.53;;
826;SDS011;395;48.132;11.608;2023-06-26T01:09:57;7.73;;;6.93;;
826;SDS011;395;48.132;11.608;2023-06-26T01:12:23;7.40;;;6.70;;
826;SDS011;395;48.132;11.608;2023-06-26T01:14:49;7.33;;;6.60;;
826;SDS011;395;48.132;11.608;2023-06-26T01:17:15;7.77;;;7.00;;
826;SDS011;395;48.132;11.608;2023-06-26T01:19:41;7.30;;;6.70;;
826;SDS011;395;48.132;11.608;2023-06-26T01:28:04;8.33;;;7.30;;
826;SDS011;395;48.132;11.608;2023-06-26T01:30:31;6.73;;;6.07;;
826;SDS011;395;48.132;11.608;2023-06-26T01:32:58;8.07;;;7.27;;
826;SDS011;395;48.132;11.608;2023-06-26T01:35:25;7.27;;;6.57;;
826;SDS011;395;48.132;11.608;2023-06-26T01:37:52;8.30;;;7.43;;
826;SDS011;395;48.132;11.608;2023-06-26T01:40:17;8.43;;;6.43;;
826;SDS011;395;48.132;11.608;2023-06-26T01:42:43;8.10;;;7.30;;
826;SDS011;395;48.132;11.608;2023-06-26T01:45:20;7.83;;;7.00;;
826;SDS011;395;48.132;11.608;2023-06-26T01:47:52;7.80;;;7.07;;
826;SDS011;395;48.132;11.608;2023-06-26T01:50:22;7.90;;;7.10;;
826;SDS011;395;48.132;11.608;2023-06-26T01:53:00;8.50;;;7.70;;
826;SDS011;395;48.132;11.608;2023-06-26T01:58:31;8.00;;;7.20;;
826;SDS011;395;48.132;11.608;2023-06-26T02:00:58;8.33;;;7.00;;
826;SDS011;395;48.132;11.608;2023-06-26T02:03:24;7.70;;;7.00;;
826;SDS011;395;48.132;11.608;2023-06-26T02:05:50;7.80;;;7.00;;
826;SDS011;395;48.132;11.608;2023-06-26T02:08:16;7.87;;;7.10;;
826;SDS011;395;48.132;11.608;2023-06-26T02:10:42;8.97;;;7.33;;
826;SDS011;395;48.132;11.608;2023-06-26T02:13:07;9.87;;;7.23;;
826;SDS011;395;48.132;11.608;2023-06-26T02:15:33;7.60;;;6.90;;
826;SDS011;395;48.132;11.608;2023-06-26T02:17:59;7.60;;;6.80;;
826;SDS011;395;48.132;11.608;2023-06-26T02:20:24;7.40;;;6.70;;
826;SDS011;395;48.132;11.608;2023-06-26T02:22:50;9.10;;;7.97;;
826;SDS011;395;48.132;11.608;2023-06-26T02:25:17;7.97;;;7.17;;
826;SDS011;395;48.132;11.608;2023-06-26T02:27:43;9.87;;;7.27;;
826;SDS011;395;48.132;11.608;2023-06-26T02:30:09;8.00;;;6.97;;
826;SDS011;395;48.132;11.608;2023-06-26T02:32:35;8.13;;;7.07;;
826;SDS011;395;48.132;11.608;2023-06-26T02:35:00;7.80;;;7.00;;
826;SDS011;395;48.132;11.608;2023-06-26T02:37:26;7.83;;;7.07;;
826;SDS011;395;48.132;11.608;2023-06-26T02:39:52;8.43;;;7.53;;
826;SDS011;395;48.132;11.608;2023-06-26T02:42:18;9.70;;;6.93;;
826;SDS011;395;48.132;11.608;2023-06-26T02:44:43;7.40;;;6.70;;
826;SDS011;395;48.132;11.608;2023-06-26T02:47:09;7.60;;;6.83;;
826;SDS011;395;48.132;11.608;2023-06-26T02:49:34;8.37;;;7.60;;
826;SDS011;395;48.132;11.608;2023-06-26T02:52:00;7.70;;;7.00;;
826;SDS011;395;48.132;11.608;2023-06-26T02:54:26;8.10;;;7.40;;
826;SDS011;395;48.132;11.608;2023-06-26T02:56:52;8.37;;;7.50;;
826;SDS011;395;48.132;11.608;2023-06-26T02:59:17;7.70;;;6.90;;
826;SDS011;395;48.132;11.608;2023-06-26T03:01:43;7.33;;;6.60;;
826;SDS011;395;48.132;11.608;2023-06-26T03:04:09;7.60;;;6.90;;
826;SDS011;395;48.132;11.608;2023-06-26T03:06:35;7.30;;;6.57;;
826;SDS011;395;48.132;11.608;2023-06-26T03:09:01;8.57;;;6.90;;
826;SDS011;395;48.132;11.608;2023-06-26T03:11:27;7.73;;;7.10;;
826;SDS011;395;48.132;11.608;2023-06-26T03:13:53;9.37;;;7.83;;
826;SDS011;395;48.132;11.608;2023-06-26T03:16:19;8.30;;;7.40;;
826;SDS011;395;48.132;11.608;2023-06-26T03:18:45;7.83;;;7.03;;
826;SDS011;395;48.132;11.608;2023-06-26T03:21:10;8.10;;;7.30;;
826;SDS011;395;48.132;11.608;2023-06-26T03:23:36;10.23;;;8.07;;
826;SDS011;395;48.132;11.608;2023-06-26T03:26:01;9.83;;;7.57;;
826;SDS011;395;48.132;11.608;2023-06-26T03:28:27;8.47;;;7.37;;
826;SDS011;395;48.132;11.608;2023-06-26T03:30:53;7.90;;;7.10;;
826;SDS011;395;48.132;11.608;2023-06-26T03:33:18;8.37;;;7.40;;
826;SDS011;395;48.132;11.608;2023-06-26T03:35:44;8.93;;;8.10;;
826;SDS011;395;48.132;11.608;2023-06-26T03:38:10;11.90;;;8.00;;
826;SDS011;395;48.132;11.608;2023-06-26T03:40:35;8.47;;;7.57;;
826;SDS011;395;48.132;11.608;2023-06-26T03:43:01;8.07;;;7.27;;
826;SDS011;395;48.132;11.608;2023-06-26T03:45:27;8.37;;;7.57;;
826;SDS011;395;48.132;11.608;2023-06-26T03:47:53;8.67;;;7.80;;
826;SDS011;395;48.132;11.608;2023-06-26T03:50:18;7.97;;;7.13;;
826;SDS011;395;48.132;11.608;2023-06-26T03:52:45;7.70;;;6.90;;
826;SDS011;395;48.132;11.608;2023-06-26T03:55:11;8.07;;;7.27;;
826;SDS011;395;48.132;11.608;2023-06-26T03:57:36;8.10;;;7.27;;
826;SDS011;395;48.132;11.608;2023-06-26T04:00:02;7.70;;;6.90;;
826;SDS011;395;48.132;11.608;2023-06-26T04:02:33;8.50;;;7.40;;
826;SDS011;395;48.132;11.608;2023-06-26T04:04:59;8.27;;;7.47;;
826;SDS011;395;48.132;11.608;2023-06-26T04:07:25;9.00;;;7.77;;
826;SDS011;395;48.132;11.608;2023-06-26T04:09:51;8.23;;;7.43;;
826;SDS011;395;48.132;11.608;2023-06-26T04:12:17;7.13;;;6.33;;
826;SDS011;395;48.132;11.608;2023-06-26T04:14:42;8.67;;;7.87;;
826;SDS011;395;48.132;11.608;2023-06-26T04:17:08;8.03;;;7.23;;
826;SDS011;395;48.132;11.608;2023-06-26T04:19:34;8.37;;;7.47;;
826;SDS011;395;48.132;11.608;2023-06-26T04:22:01;7.60;;;6.80;;
826;SDS011;395;48.132;11.608;2023-06-26T04:24:27;8.37;;;7.50;;
826;SDS011;395;48.132;11.608;2023-06-26T04:26:53;8.77;;;7.40;;
826;SDS011;395;48.132;11.608;2023-06-26T04:29:22;8.10;;;7.30;;
826;SDS011;395;48.132;11.608;2023-06-26T04:31:50;8.63;;;7.73;;
826;SDS011;395;48.132;11.608;2023-06-26T04:34:17;8.60;;;7.77;;
826;SDS011;395;48.132;11.608;2023-06-26T04:36:42;9.97;;;7.70;;
826;SDS011;395;48.132;11.608;2023-06-26T04:39:12;8.97;;;7.50;;
826;SDS011;395;48.132;11.608;2023-06-26T04:41:39;9.80;;;7.70;;
826;SDS011;395;48.132;11.608;2023-06-26T04:44:06;8.27;;;7.37;;
826;SDS011;395;48.132;11.608;2023-06-26T04:46:31;7.70;;;6.90;;
826;SDS011;395;48.132;11.608;2023-06-26T04:48:57;8.30;;;7.50;;
826;SDS011;395;48.132;11.608;2023-06-26T04:51:23;9.13;;;8.20;;
826;SDS011;395;48.132;11.608;2023-06-26T04:53:53;7.90;;;7.10;;
826;SDS011;395;48.132;11.608;2023-06-26T04:56:19;8.50;;;7.13;;
826;SDS011;395;48.132;11.608;2023-06-26T04:58:45;9.30;;;8.40;;
826;SDS011;395;48.132;11.608;2023-06-26T05:01:10;9.93;;;8.43;;
826;SDS011;395;48.132;11.608;2023-06-26T05:03:38;8.53;;;7.73;;
826;SDS011;395;48.132;11.608;2023-06-26T05:06:04;9.90;;;7.40;;
826;SDS011;395;48.132;11.608;2023-06-26T05:08:30;7.70;;;6.97;;
826;SDS011;395;48.132;11.608;2023-06-26T05:10:56;8.90;;;8.10;;
826;SDS011;395;48.132;11.608;2023-06-26T05:13:24;8.60;;;7.80;;
826;SDS011;395;48.132;11.608;2023-06-26T05:15:51;9.47;;;8.07;;
826;SDS011;395;48.132;11.608;2023-06-26T05:18:17;10.20;;;8.17;;
826;SDS011;395;48.132;11.608;2023-06-26T05:20:43;8.17;;;7.27;;
826;SDS011;395;48.132;11.608;2023-06-26T05:23:10;9.83;;;8.50;;
826;SDS011;395;48.132;11.608;2023-06-26T05:25:37;9.17;;;8.27;;
826;SDS011;395;48.132;11.608;2023-06-26T05:28:03;9.37;;;7.80;;
826;SDS011;395;48.132;11.608;2023-06-26T05:30:30;11.00;;;7.90;;
826;SDS011;395;48.132;11.608;2023-06-26T05:32:59;8.60;;;7.70;;
826;SDS011;395;48.132;11.608;2023-06-26T05:35:26;8.83;;;7.80;;
826;SDS011;395;48.132;11.608;2023-06-26T05:37:55;10.10;;;8.03;;
826;SDS011;395;48.132;11.608;2023-06-26T05:40:21;9.33;;;8.07;;
826;SDS011;395;48.132;11.608;2023-06-26T05:42:48;9.00;;;7.53;;
826;SDS011;395;48.132;11.608;2023-06-26T05:45:13;9.60;;;7.30;;
826;SDS011;395;48.132;11.608;2023-06-26T05:47:40;8.20;;;7.40;;
826;SDS011;395;48.132;11.608;2023-06-26T05:50:06;9.70;;;7.63;;
826;SDS011;395;48.132;11.608;2023-06-26T05:52:35;9.17;;;8.20;;
826;SDS011;395;48.132;11.608;2023-06-26T05:55:02;9.33;;;8.00;;
826;SDS011;395;48.132;11.608;2023-06-26T05:57:28;9.10;;;7.70;;
826;SDS011;395;48.132;11.608;2023-06-26T05:59:54;8.63;;;7.83;;
826;SDS011;395;48.132;11.608;2023-06-26T06:02:20;9.87;;;7.83;;
826;SDS011;395;48.132;11.608;2023-06-26T06:04:46;8.80;;;7.90;;
826;SDS011;395;48.132;11.608;2023-06-26T06:07:12;9.00;;;7.23;;
826;SDS011;395;48.132;11.608;2023-06-26T06:09:38;8.33;;;6.70;;
826;SDS011;395;48.132;11.608;2023-06-26T06:12:05;8.50;;;7.70;;
826;SDS011;395;48.132;11.608;2023-06-26T06:14:34;8.13;;;7.33;;
826;SDS011;395;48.132;11.608;2023-06-26T06:17:00;6.80;;;6.20;;
826;SDS011;395;48.132;11.608;2023-06-26T06:19:26;9.30;;;7.30;;
826;SDS011;395;48.132;11.608;2023-06-26T06:21:52;8.07;;;7.30;;
826;SDS011;395;48.132;11.608;2023-06-26T06:24:17;8.10;;;7.30;;
826;SDS011;395;48.132;11.608;2023-06-26T06:26:43;8.07;;;7.03;;
826;SDS011;395;48.132;11.608;2023-06-26T06:29:09;8.20;;;7.40;;
826;SDS011;395;48.132;11.608;2023-06-26T06:31:34;8.27;;;7.33;;
826;SDS011;395;48.132;11.608;2023-06-26T06:34:00;8.47;;;7.67;;
826;SDS011;395;48.132;11.608;2023-06-26T06:36:26;7.73;;;6.90;;
826;SDS011;395;48.132;11.608;2023-06-26T06:38:52;8.90;;;8.00;;
826;SDS011;395;48.132;11.608;2023-06-26T06:41:18;8.73;;;7.73;;
826;SDS011;395;48.132;11.608;2023-06-26T06:43:45;7.80;;;7.03;;
826;SDS011;395;48.132;11.608;2023-06-26T06:46:11;8.23;;;7.27;;
826;SDS011;395;48.132;11.608;2023-06-26T06:48:36;8.10;;;6.77;;
826;SDS011;395;48.132;11.608;2023-06-26T06:51:02;7.80;;;7.00;;
826;SDS011;395;48.132;11.608;2023-06-26T06:53:28;9.57;;;6.97;;
826;SDS011;395;48.132;11.608;2023-06-26T06:55:54;8.60;;;7.73;;
826;SDS011;395;48.132;11.608;2023-06-26T06:58:19;10.83;;;7.03;;
826;SDS011;395;48.132;11.608;2023-06-26T07:00:45;8.03;;;7.33;;
826;SDS011;395;48.132;11.608;2023-06-26T07:03:11;9.47;;;7.13;;
826;SDS011;395;48.132;11.608;2023-06-26T07:05:37;7.70;;;6.73;;
826;SDS011;395;48.132;11.608;2023-06-26T07:08:03;8.17;;;7.33;;
826;SDS011;395;48.132;11.608;2023-06-26T07:10:29;7.00;;;6.33;;
826;SDS011;395;48.132;11.608;2023-06-26T07:12:54;7.90;;;7.20;;
826;SDS011;395;48.132;11.608;2023-06-26T07:15:20;7.87;;;7.07;;
826;SDS011;395;48.132;11.608;2023-06-26T07:17:46;8.87;;;7.73;;
826;SDS011;395;48.132;11.608;2023-06-26T07:20:11;7.10;;;6.40;;
826;SDS011;395;48.132;11.608;2023-06-26T07:22:40;11.40;;;7.57;;
826;SDS011;395;48.132;11.608;2023-06-26T07:25:06;8.17;;;7.37;;
826;SDS011;395;48.132;11.608;2023-06-26T07:27:36;10.23;;;7.50;;
826;SDS011;395;48.132;11.608;2023-06-26T07:30:05;7.00;;;6.40;;
826;SDS011;395;48.132;11.608;2023-06-26T07:32:33;8.27;;;7.40;;
826;SDS011;395;48.132;11.608;2023-06-26T07:34:59;7.70;;;7.00;;
826;SDS011;395;48.132;11.608;2023-06-26T07:37:25;9.60;;;7.50;;
826;SDS011;395;48.132;11.608;2023-06-26T07:39:50;7.50;;;6.80;;
826;SDS011;395;48.132;11.608;2023-06-26T07:42:16;7.50;;;6.80;;
826;SDS011;395;48.132;11.608;2023-06-26T07:44:42;7.57;;;6.87;;
826;SDS011;395;48.132;11.608;2023-06-26T07:47:08;8.20;;;7.40;;
826;SDS011;395;48.132;11.608;2023-06-26T07:49:34;7.63;;;6.93;;
826;SDS011;395;48.132;11.608;2023-06-26T07:52:00;7.87;;;7.17;;
826;SDS011;395;48.132;11.608;2023-06-26T07:54:25;7.67;;;6.97;;
826;SDS011;395;48.132;11.608;2023-06-26T07:56:52;8.27;;;7.50;;
826;SDS011;395;48.132;11.608;2023-06-26T07:59:19;7.83;;;7.13;;
826;SDS011;395;48.132;11.608;2023-06-26T08:01:47;7.80;;;7.00;;
826;SDS011;395;48.132;11.608;2023-06-26T08:04:12;8.07;;;7.37;;
826;SDS011;395;48.132;11.608;2023-06-26T08:06:38;8.30;;;7.50;;
826;SDS011;395;48.132;11.608;2023-06-26T08:09:05;8.70;;;8.00;;
826;SDS011;395;48.132;11.608;2023-06-26T08:11:32;8.57;;;7.20;;
826;SDS011;395;48.132;11.608;2023-06-26T08:13:58;8.30;;;7.60;;
826;SDS011;395;48.132;11.608;2023-06-26T08:16:24;7.97;;;7.27;;
826;SDS011;395;48.132;11.608;2023-06-26T08:18:50;8.07;;;7.33;;
826;SDS011;395;48.132;11.608;2023-06-26T08:21:15;8.80;;;7.50;;
826;SDS011;395;48.132;11.608;2023-06-26T08:23:41;8.37;;;7.60;;
826;SDS011;395;48.132;11.608;2023-06-26T08:26:07;7.80;;;7.10;;
826;SDS011;395;48.132;11.608;2023-06-26T08:28:33;8.00;;;7.30;;
826;SDS011;395;48.132;11.608;2023-06-26T08:30:58;7.87;;;7.10;;
826;SDS011;395;48.132;11.608;2023-06-26T08:33:24;8.33;;;7.50;;
826;SDS011;395;48.132;11.608;2023-06-26T08:35:50;9.10;;;7.80;;
826;SDS011;395;48.132;11.608;2023-06-26T08:38:16;8.57;;;7.77;;
826;SDS011;395;48.132;11.608;2023-06-26T08:40:42;7.50;;;6.70;;
826;SDS011;395;48.132;11.608;2023-06-26T08:43:07;10.17;;;7.40;;
826;SDS011;395;48.132;11.608;2023-06-26T08:45:33;8.93;;;7.43;;
826;SDS011;395;48.132;11.608;2023-06-26T08:48:00;9.40;;;7.23;;
826;SDS011;395;48.132;11.608;2023-06-26T08:50:27;7.83;;;7.10;;
826;SDS011;395;48.132;11.608;2023-06-26T08:53:03;12.03;;;7.80;;
826;SDS011;395;48.132;11.608;2023-06-26T08:55:29;7.97;;;7.27;;
826;SDS011;395;48.132;11.608;2023-06-26T08:57:58;6.67;;;6.17;;
826;SDS011;395;48.132;11.608;2023-06-26T09:00:24;7.57;;;6.93;;
826;SDS011;395;48.132;11.608;2023-06-26T09:02:50;7.10;;;6.50;;
826;SDS011;395;48.132;11.608;2023-06-26T09:05:16;7.37;;;6.70;;
826;SDS011;395;48.132;11.608;2023-06-26T09:07:42;7.37;;;6.53;;
826;SDS011;395;48.132;11.608;2023-06-26T09:10:08;8.00;;;7.30;;
826;SDS011;395;48.132;11.608;2023-06-26T09:12:34;7.33;;;6.47;;
826;SDS011;395;48.132;11.608;2023-06-26T09:15:00;6.50;;;5.90;;
826;SDS011;395;48.132;11.608;2023-06-26T09:17:32;6.60;;;6.00;;
826;SDS011;395;48.132;11.608;2023-06-26T09:20:03;7.97;;;7.23;;
826;SDS011;395;48.132;11.608;2023-06-26T09:22:29;7.10;;;6.50;;
826;SDS011;395;48.132;11.608;2023-06-26T09:24:58;7.67;;;6.97;;
826;SDS011;395;48.132;11.608;2023-06-26T09:27:24;7.20;;;6.60;;
826;SDS011;395;48.132;11.608;2023-06-26T09:29:50;7.03;;;6.43;;
826;SDS011;395;48.132;11.608;2023-06-26T09:32:16;6.80;;;6.10;;
826;SDS011;395;48.132;11.608;2023-06-26T09:34:42;7.40;;;6.70;;
826;SDS011;395;48.132;11.608;2023-06-26T09:37:11;7.53;;;6.70;;
826;SDS011;395;48.132;11.608;2023-06-26T09:39:38;7.73;;;7.03;;
826;SDS011;395;48.132;11.608;2023-06-26T09:42:04;7.53;;;6.90;;
826;SDS011;395;48.132;11.608;2023-06-26T09:44:32;6.93;;;6.33;;
826;SDS011;395;48.132;11.608;2023-06-26T09:46:58;7.20;;;6.53;;
826;SDS011;395;48.132;11.608;2023-06-26T09:49:27;7.70;;;7.00;;
826;SDS011;395;48.132;11.608;2023-06-26T09:51:52;6.70;;;6.17;;
826;SDS011;395;48.132;11.608;2023-06-26T09:54:18;6.80;;;6.10;;
826;SDS011;395;48.132;11.608;2023-06-26T09:56:47;6.60;;;6.10;;
826;SDS011;395;48.132;11.608;2023-06-26T09:59:12;6.30;;;5.80;;
826;SDS011;395;48.132;11.608;2023-06-26T10:01:40;6.33;;;5.77;;
826;SDS011;395;48.132;11.608;2023-06-26T10:04:09;5.87;;;5.37;;
826;SDS011;395;48.132;11.608;2023-06-26T10:09:02;6.80;;;5.07;;
826;SDS011;395;48.132;11.608;2023-06-26T10:12:03;8.37;;;5.53;;
826;SDS011;395;48.132;11.608;2023-06-26T10:14:21;5.53;;;5.03;;
826;SDS011;395;48.132;11.608;2023-06-26T10:16:48;5.60;;;5.10;;
826;SDS011;395;48.132;11.608;2023-06-26T10:19:16;6.13;;;5.40;;
826;SDS011;395;48.132;11.608;2023-06-26T10:21:48;6.67;;;6.07;;
826;SDS011;395;48.132;11.608;2023-06-26T10:24:17;6.00;;;5.50;;
826;SDS011;395;48.132;11.608;2023-06-26T10:26:44;6.00;;;5.40;;
826;SDS011;395;48.132;11.608;2023-06-26T10:29:13;6.40;;;5.80;;
826;SDS011;395;48.132;11.608;2023-06-26T10:31:41;5.33;;;4.93;;
826;SDS011;395;48.132;11.608;2023-06-26T10:34:10;6.03;;;5.43;;
826;SDS011;395;48.132;11.608;2023-06-26T10:36:36;6.00;;;5.50;;
826;SDS011;395;48.132;11.608;2023-06-26T10:39:05;5.87;;;5.27;;
826;SDS011;395;48.132;11.608;2023-06-26T10:41:41;5.53;;;5.10;;
826;SDS011;395;48.132;11.608;2023-06-26T10:44:15;5.70;;;5.07;;
826;SDS011;395;48.132;11.608;2023-06-26T10:46:48;6.00;;;5.50;;
826;SDS011;395;48.132;11.608;2023-06-26T10:49:27;6.07;;;5.37;;
826;SDS011;395;48.132;11.608;2023-06-26T10:51:54;6.00;;;5.50;;
826;SDS011;395;48.132;11.608;2023-06-26T10:54:23;6.00;;;5.50;;
826;SDS011;395;48.132;11.608;2023-06-26T10:56:54;5.53;;;5.13;;
826;SDS011;395;48.132;11.608;2023-06-26T10:59:24;5.60;;;5.20;;
826;SDS011;395;48.132;11.608;2023-06-26T11:01:55;5.10;;;4.70;;
826;SDS011;395;48.132;11.608;2023-06-26T11:07:26;5.90;;;5.40;;
826;SDS011;395;48.132;11.608;2023-06-26T11:09:55;5.80;;;5.30;;
826;SDS011;395;48.132;11.608;2023-06-26T11:15:07;7.10;;;6.40;;
826;SDS011;395;48.132;11.608;2023-06-26T11:17:34;5.43;;;5.03;;
826;SDS011;395;48.132;11.608;2023-06-26T11:20:01;6.03;;;5.43;;
826;SDS011;395;48.132;11.608;2023-06-26T11:22:29;5.70;;;5.30;;
826;SDS011;395;48.132;11.608;2023-06-26T11:24:59;6.60;;;6.00;;
826;SDS011;395;48.132;11.608;2023-06-26T11:27:30;5.57;;;5.07;;
826;SDS011;395;48.132;11.608;2023-06-26T11:30:11;6.50;;;6.00;;
826;SDS011;395;48.132;11.608;2023-06-26T11:32:47;6.70;;;6.10;;
826;SDS011;395;48.132;11.608;2023-06-26T11:35:13;6.37;;;5.77;;
826;SDS011;395;48.132;11.608;2023-06-26T11:37:47;6.33;;;5.40;;
826;SDS011;395;48.132;11.608;2023-06-26T11:40:16;6.30;;;5.70;;
826;SDS011;395;48.132;11.608;2023-06-26T11:42:45;6.73;;;6.23;;
826;SDS011;395;48.132;11.608;2023-06-26T11:45:10;6.27;;;5.77;;
826;SDS011;395;48.132;11.608;2023-06-26T11:47:37;6.03;;;5.57;;
826;SDS011;395;48.132;11.608;2023-06-26T11:50:04;6.33;;;5.70;;
826;SDS011;395;48.132;11.608;2023-06-26T11:52:32;6.63;;;6.13;;
826;SDS011;395;48.132;11.608;2023-06-26T11:54:58;6.80;;;6.13;;
826;SDS011;395;48.132;11.608;2023-06-26T11:57:24;7.10;;;6.43;;
826;SDS011;395;48.132;11.608;2023-06-26T11:59:50;6.30;;;5.80;;
826;SDS011;395;48.132;11.608;2023-06-26T12:02:17;7.80;;;6.67;;
826;SDS011;395;48.132;11.608;2023-06-26T12:04:43;7.60;;;6.90;;
826;SDS011;395;48.132;11.608;2023-06-26T12:07:10;9.27;;;6.70;;
826;SDS011;395;48.132;11.608;2023-06-26T12:09:46;7.40;;;6.10;;
826;SDS011;395;48.132;11.608;2023-06-26T12:12:13;6.70;;;6.03;;
826;SDS011;395;48.132;11.608;2023-06-26T12:14:41;7.27;;;6.67;;
826;SDS011;395;48.132;11.608;2023-06-26T12:17:10;7.40;;;6.80;;
826;SDS011;395;48.132;11.608;2023-06-26T12:19:38;7.70;;;7.00;;
826;SDS011;395;48.132;11.608;2023-06-26T12:22:08;7.27;;;6.67;;
826;SDS011;395;48.132;11.608;2023-06-26T12:24:35;6.63;;;6.13;;
826;SDS011;395;48.132;11.608;2023-06-26T12:27:07;6.83;;;6.23;;
826;SDS011;395;48.132;11.608;2023-06-26T12:29:34;7.33;;;6.60;;
826;SDS011;395;48.132;11.608;2023-06-26T12:32:00;7.60;;;7.00;;
826;SDS011;395;48.132;11.608;2023-06-26T12:34:28;8.43;;;6.57;;
826;SDS011;395;48.132;11.608;2023-06-26T12:36:59;7.30;;;6.53;;
826;SDS011;395;48.132;11.608;2023-06-26T12:39:44;7.43;;;6.77;;
826;SDS011;395;48.132;11.608;2023-06-26T12:42:13;7.63;;;7.03;;
826;SDS011;395;48.132;11.608;2023-06-26T12:44:43;7.60;;;6.97;;
826;SDS011;395;48.132;11.608;2023-06-26T12:47:09;6.90;;;6.30;;
826;SDS011;395;48.132;11.608;2023-06-26T12:49:38;7.23;;;6.63;;
826;SDS011;395;48.132;11.608;2023-06-26T12:52:07;7.17;;;6.57;;
826;SDS011;395;48.132;11.608;2023-06-26T12:54:34;8.20;;;6.73;;
826;SDS011;395;48.132;11.608;2023-06-26T12:57:01;7.83;;;7.13;;
826;SDS011;395;48.132;11.608;2023-06-26T12:59:29;7.23;;;6.73;;
826;SDS011;395;48.132;11.608;2023-06-26T13:01:56;7.40;;;6.80;;
826;SDS011;395;48.132;11.608;2023-06-26T13:04:21;6.70;;;6.20;;
826;SDS011;395;48.132;11.608;2023-06-26T13:06:47;7.37;;;6.77;;
826;SDS011;395;48.132;11.608;2023-06-26T13:09:13;7.57;;;6.77;;
826;SDS011;395;48.132;11.608;2023-06-26T13:11:38;8.00;;;7.30;;
826;SDS011;395;48.132;11.608;2023-06-26T13:14:04;7.93;;;7.23;;
826;SDS011;395;48.132;11.608;2023-06-26T13:16:30;7.83;;;7.13;;
826;SDS011;395;48.132;11.608;2023-06-26T13:18:57;7.17;;;6.57;;
826;SDS011;395;48.132;11.608;2023-06-26T13:21:24;7.33;;;6.73;;
826;SDS011;395;48.132;11.608;2023-06-26T13:23:50;7.47;;;6.87;;
826;SDS011;395;48.132;11.608;2023-06-26T13:26:16;6.90;;;6.30;;
826;SDS011;395;48.132;11.608;2023-06-26T13:28:41;7.10;;;6.50;;
826;SDS011;395;48.132;11.608;2023-06-26T13:31:07;8.03;;;7.33;;
826;SDS011;395;48.132;11.608;2023-06-26T13:33:33;6.83;;;6.30;;
826;SDS011;395;48.132;11.608;2023-06-26T13:35:58;7.60;;;6.80;;
826;SDS011;395;48.132;11.608;2023-06-26T13:38:24;7.93;;;7.23;;
826;SDS011;395;48.132;11.608;2023-06-26T13:40:54;7.80;;;7.10;;
826;SDS011;395;48.132;11.608;2023-06-26T13:43:20;8.23;;;7.47;;
826;SDS011;395;48.132;11.608;2023-06-26T13:45:47;7.10;;;6.40;;
826;SDS011;395;48.132;11.608;2023-06-26T13:48:13;8.33;;;7.53;;
826;SDS011;395;48.132;11.608;2023-06-26T13:50:39;8.77;;;7.90;;
826;SDS011;395;48.132;11.608;2023-06-26T13:53:05;8.10;;;7.40;;
826;SDS011;395;48.132;11.608;2023-06-26T13:55:31;8.27;;;7.57;;
826;SDS011;395;48.132;11.608;2023-06-26T13:57:58;8.40;;;7.70;;
826;SDS011;395;48.132;11.608;2023-06-26T14:00:23;8.50;;;7.80;;
826;SDS011;395;48.132;11.608;2023-06-26T14:02:50;8.60;;;7.90;;
826;SDS011;395;48.132;11.608;2023-06-26T14:05:16;8.50;;;7.77;;
826;SDS011;395;48.132;11.608;2023-06-26T14:07:43;7.73;;;7.13;;
826;SDS011;395;48.132;11.608;2023-06-26T14:10:12;8.70;;;7.93;;
826;SDS011;395;48.132;11.608;2023-06-26T14:12:38;8.00;;;7.30;;
826;SDS011;395;48.132;11.608;2023-06-26T14:15:05;8.17;;;7.47;;
826;SDS011;395;48.132;11.608;2023-06-26T14:17:31;8.30;;;7.60;;
826;SDS011;395;48.132;11.608;2023-06-26T14:19:56;8.70;;;7.90;;
826;SDS011;395;48.132;11.608;2023-06-26T14:22:24;8.70;;;8.00;;
826;SDS011;395;48.132;11.608;2023-06-26T14:24:50;7.20;;;6.60;;
826;SDS011;395;48.132;11.608;2023-06-26T14:27:15;8.10;;;7.50;;
826;SDS011;395;48.132;11.608;2023-06-26T14:29:41;8.40;;;7.70;;
826;SDS011;395;48.132;11.608;2023-06-26T14:32:07;7.37;;;6.77;;
826;SDS011;395;48.132;11.608;2023-06-26T14:34:32;7.90;;;7.20;;
826;SDS011;395;48.132;11.608;2023-06-26T14:36:58;10.00;;;8.30;;
826;SDS011;395;48.132;11.608;2023-06-26T14:39:24;8.60;;;7.60;;
826;SDS011;395;48.132;11.608;2023-06-26T14:41:50;7.17;;;6.67;;
826;SDS011;395;48.132;11.608;2023-06-26T14:44:16;8.50;;;7.80;;
826;SDS011;395;48.132;11.608;2023-06-26T14:46:41;7.87;;;7.27;;
826;SDS011;395;48.132;11.608;2023-06-26T14:49:08;8.07;;;7.47;;
826;SDS011;395;48.132;11.608;2023-06-26T14:51:34;8.90;;;8.20;;
826;SDS011;395;48.132;11.608;2023-06-26T14:53:59;8.40;;;7.23;;
826;SDS011;395;48.132;11.608;2023-06-26T14:56:25;8.20;;;7.50;;
826;SDS011;395;48.132;11.608;2023-06-26T14:58:51;8.07;;;7.37;;
826;SDS011;395;48.132;11.608;2023-06-26T15:01:18;7.80;;;7.20;;
826;SDS011;395;48.132;11.608;2023-06-26T15:03:45;7.87;;;7.20;;
826;SDS011;395;48.132;11.608;2023-06-26T15:06:11;9.30;;;8.50;;
826;SDS011;395;48.132;11.608;2023-06-26T15:08:37;9.50;;;8.60;;
826;SDS011;395;48.132;11.608;2023-06-26T15:11:02;9.30;;;8.60;;
826;SDS011;395;48.132;11.608;2023-06-26T15:13:28;8.70;;;7.90;;
826;SDS011;395;48.132;11.608;2023-06-26T15:15:54;8.23;;;7.50;;
826;SDS011;395;48.132;11.608;2023-06-26T15:18:20;8.73;;;8.00;;
826;SDS011;395;48.132;11.608;2023-06-26T15:20:46;7.53;;;6.93;;
826;SDS011;395;48.132;11.608;2023-06-26T15:23:12;8.17;;;7.20;;
826;SDS011;395;48.132;11.608;2023-06-26T15:25:38;8.20;;;7.40;;
826;SDS011;395;48.132;11.608;2023-06-26T15:28:04;7.57;;;6.97;;
826;SDS011;395;48.132;11.608;2023-06-26T15:30:30;8.13;;;7.53;;
826;SDS011;395;48.132;11.608;2023-06-26T15:32:56;8.20;;;7.50;;
826;SDS011;395;48.132;11.608;2023-06-26T15:35:22;7.73;;;7.10;;
826;SDS011;395;48.132;11.608;2023-06-26T15:37:47;7.77;;;7.07;;
826;SDS011;395;48.132;11.608;2023-06-26T15:40:14;9.73;;;7.53;;
826;SDS011;395;48.132;11.608;2023-06-26T15:42:47;7.87;;;7.23;;
826;SDS011;395;48.132;11.608;2023-06-26T15:45:15;7.47;;;6.87;;